Airfield :
LOGIN :

Register | Disclaimer

   EN    FR    IT 

 










Legend :    VFR   Marginal VFR   IFR   Intensive IFR   Very Intensive IFR
Visi :
Ceiling :
>= 8 km
>= 3000ft
5 to 8 km
1000 to 3000 ft
1500m to 5 km
500 to 1000 ft
800 to 1500m
200 to 500 ft
< 800m
< 200 ft
Symbols :   Thunderstorms  Fog  Heavy snow  Heavy precipitations  Wind > 20 kt
SIGMETs :     Misc.  Thunderstorms  Icing  Turbulence  Mountain Waves  Volcanic Ashes






- Airport Elevation : 375 ft
- IATA code : MST


EHBK - Maastricht Aachen

CURRENT METAR :
  • 261025Z AUTO 24007KT 200V290 2600 BR SCT004 BKN005 OVC008 01/00 Q1033 BECMG BKN008

EXPIRED METARs :
  • 260955Z AUTO 23008KT 210V270 2200 BR BKN004 OVC005 01/00 Q1033 BECMG BKN008
  • 260925Z AUTO 23009KT 180V260 2200 BR BKN004 OVC005 01/00 Q1033 BECMG BKN008
  • 260855Z AUTO 24009KT 210V280 2500 BR BKN005 OVC006 01/00 Q1033 TEMPO BKN011
  • 260825Z AUTO 23009KT 200V270 2500 BR BKN006 OVC007 01/M00 Q1032 TEMPO BKN011
  • 260755Z AUTO 23009KT 2600 BR OVC007 01/M00 Q1032 TEMPO BKN011

TAF TAF EHBK
Valid from the 26 at 06:00 until the 27 at 12:00 UTC


260523Z 2606/2712 25007KT 4000 BR BKN009
PROB30
TEMPO 2606/2611 2000
BECMG 2609/2612 8000 NSW BKN016
PROB40
TEMPO 2612/2710 7000 -DZ BKN012
BECMG 2623/2702 22014KT
PROB40 2710/2712 6000 RADZ BKN009



MET'MAP, your aeronautical weather chart ! - Copyright ORBIFLY December 2007 - Disclaimer

ORBIFLY MET'MAP TEAM :

Programming & Development : Alexandra Zaïnal
Original concept : Baudouin d'Aumeries
Technical & hardware support : Manuel Goepfert
Assistance : Marc-Olivier Méhu

Contact : metmap@orbifly.com




SOURCES & CREDITS :

   NOAA